sensor_id;sensor_type;location;lat;lon;timestamp;P1;durP1;ratioP1;P2;durP2;ratioP2
16181;SDS011;8197;51.664;7.114;2023-12-22T00:00:42;22.57;;;2.97;;
16181;SDS011;8197;51.664;7.114;2023-12-22T00:05:48;25.53;;;2.80;;
16181;SDS011;8197;51.664;7.114;2023-12-22T00:10:51;27.97;;;2.70;;
16181;SDS011;8197;51.664;7.114;2023-12-22T00:15:55;19.93;;;2.93;;
16181;SDS011;8197;51.664;7.114;2023-12-22T00:20:58;18.33;;;1.87;;
16181;SDS011;8197;51.664;7.114;2023-12-22T00:26:01;24.87;;;2.13;;
16181;SDS011;8197;51.664;7.114;2023-12-22T00:31:06;28.60;;;3.27;;
16181;SDS011;8197;51.664;7.114;2023-12-22T00:36:09;17.03;;;2.23;;
16181;SDS011;8197;51.664;7.114;2023-12-22T00:41:13;22.10;;;3.00;;
16181;SDS011;8197;51.664;7.114;2023-12-22T00:46:18;20.10;;;2.40;;
16181;SDS011;8197;51.664;7.114;2023-12-22T00:51:22;21.13;;;2.30;;
16181;SDS011;8197;51.664;7.114;2023-12-22T00:56:25;23.03;;;2.30;;
16181;SDS011;8197;51.664;7.114;2023-12-22T01:01:29;26.20;;;2.97;;
16181;SDS011;8197;51.664;7.114;2023-12-22T01:06:36;18.93;;;1.90;;
16181;SDS011;8197;51.664;7.114;2023-12-22T01:11:40;21.07;;;2.63;;
16181;SDS011;8197;51.664;7.114;2023-12-22T01:16:45;18.47;;;2.20;;
16181;SDS011;8197;51.664;7.114;2023-12-22T01:21:48;26.03;;;2.67;;
16181;SDS011;8197;51.664;7.114;2023-12-22T01:26:53;27.10;;;2.50;;
16181;SDS011;8197;51.664;7.114;2023-12-22T01:31:58;20.90;;;2.13;;
16181;SDS011;8197;51.664;7.114;2023-12-22T01:37:01;27.03;;;2.37;;
16181;SDS011;8197;51.664;7.114;2023-12-22T01:42:05;21.67;;;2.03;;
16181;SDS011;8197;51.664;7.114;2023-12-22T01:47:09;17.70;;;1.97;;
16181;SDS011;8197;51.664;7.114;2023-12-22T01:52:13;19.30;;;2.40;;
16181;SDS011;8197;51.664;7.114;2023-12-22T01:57:17;20.10;;;2.50;;
16181;SDS011;8197;51.664;7.114;2023-12-22T02:02:23;24.53;;;2.10;;
16181;SDS011;8197;51.664;7.114;2023-12-22T02:07:26;18.73;;;1.80;;
16181;SDS011;8197;51.664;7.114;2023-12-22T02:12:30;23.77;;;1.70;;
16181;SDS011;8197;51.664;7.114;2023-12-22T02:17:37;15.10;;;1.20;;
16181;SDS011;8197;51.664;7.114;2023-12-22T02:22:51;19.93;;;1.60;;
16181;SDS011;8197;51.664;7.114;2023-12-22T02:27:57;19.57;;;1.40;;
16181;SDS011;8197;51.664;7.114;2023-12-22T02:33:04;22.50;;;1.40;;
16181;SDS011;8197;51.664;7.114;2023-12-22T02:38:11;17.83;;;1.30;;
16181;SDS011;8197;51.664;7.114;2023-12-22T02:43:15;17.40;;;1.67;;
16181;SDS011;8197;51.664;7.114;2023-12-22T02:48:19;17.33;;;1.30;;
16181;SDS011;8197;51.664;7.114;2023-12-22T02:53:23;14.43;;;1.40;;
16181;SDS011;8197;51.664;7.114;2023-12-22T02:58:27;22.00;;;2.23;;
16181;SDS011;8197;51.664;7.114;2023-12-22T03:03:29;23.20;;;1.80;;
16181;SDS011;8197;51.664;7.114;2023-12-22T03:08:34;15.90;;;1.53;;
16181;SDS011;8197;51.664;7.114;2023-12-22T03:13:37;18.87;;;1.10;;
16181;SDS011;8197;51.664;7.114;2023-12-22T03:18:40;16.77;;;1.70;;
16181;SDS011;8197;51.664;7.114;2023-12-22T03:23:44;20.83;;;2.00;;
16181;SDS011;8197;51.664;7.114;2023-12-22T03:28:47;15.37;;;1.70;;
16181;SDS011;8197;51.664;7.114;2023-12-22T03:33:50;16.00;;;1.40;;
16181;SDS011;8197;51.664;7.114;2023-12-22T03:38:54;16.33;;;1.03;;
16181;SDS011;8197;51.664;7.114;2023-12-22T03:43:57;17.33;;;1.27;;
16181;SDS011;8197;51.664;7.114;2023-12-22T03:49:00;16.03;;;1.70;;
16181;SDS011;8197;51.664;7.114;2023-12-22T03:54:05;18.73;;;1.77;;
16181;SDS011;8197;51.664;7.114;2023-12-22T03:59:08;17.57;;;1.57;;
16181;SDS011;8197;51.664;7.114;2023-12-22T04:04:11;18.83;;;1.57;;
16181;SDS011;8197;51.664;7.114;2023-12-22T04:09:15;14.70;;;1.20;;
16181;SDS011;8197;51.664;7.114;2023-12-22T04:19:21;13.50;;;1.10;;
16181;SDS011;8197;51.664;7.114;2023-12-22T04:24:25;16.80;;;1.80;;
16181;SDS011;8197;51.664;7.114;2023-12-22T04:29:28;15.90;;;1.43;;
16181;SDS011;8197;51.664;7.114;2023-12-22T04:34:31;19.70;;;1.40;;
16181;SDS011;8197;51.664;7.114;2023-12-22T04:39:35;19.50;;;1.60;;
16181;SDS011;8197;51.664;7.114;2023-12-22T04:44:38;16.20;;;1.67;;
16181;SDS011;8197;51.664;7.114;2023-12-22T04:49:40;16.40;;;1.60;;
16181;SDS011;8197;51.664;7.114;2023-12-22T04:54:45;18.30;;;1.60;;
16181;SDS011;8197;51.664;7.114;2023-12-22T04:59:48;17.40;;;1.57;;
16181;SDS011;8197;51.664;7.114;2023-12-22T05:04:51;17.17;;;1.70;;
16181;SDS011;8197;51.664;7.114;2023-12-22T05:09:55;13.93;;;1.17;;
16181;SDS011;8197;51.664;7.114;2023-12-22T05:14:58;14.80;;;1.40;;
16181;SDS011;8197;51.664;7.114;2023-12-22T05:20:01;18.63;;;1.93;;
16181;SDS011;8197;51.664;7.114;2023-12-22T05:25:07;19.70;;;1.60;;
16181;SDS011;8197;51.664;7.114;2023-12-22T05:30:11;17.57;;;1.60;;
16181;SDS011;8197;51.664;7.114;2023-12-22T05:35:15;20.57;;;2.00;;
16181;SDS011;8197;51.664;7.114;2023-12-22T05:40:19;23.50;;;1.70;;
16181;SDS011;8197;51.664;7.114;2023-12-22T05:45:22;24.90;;;2.10;;
16181;SDS011;8197;51.664;7.114;2023-12-22T05:50:28;27.70;;;2.70;;
16181;SDS011;8197;51.664;7.114;2023-12-22T05:55:32;21.63;;;1.70;;
16181;SDS011;8197;51.664;7.114;2023-12-22T06:00:35;21.10;;;2.00;;
16181;SDS011;8197;51.664;7.114;2023-12-22T06:05:38;20.60;;;2.77;;
16181;SDS011;8197;51.664;7.114;2023-12-22T06:10:43;19.70;;;1.87;;
16181;SDS011;8197;51.664;7.114;2023-12-22T06:15:46;22.60;;;2.73;;
16181;SDS011;8197;51.664;7.114;2023-12-22T06:20:50;18.10;;;2.23;;
16181;SDS011;8197;51.664;7.114;2023-12-22T06:25:55;24.80;;;2.50;;
16181;SDS011;8197;51.664;7.114;2023-12-22T06:30:58;26.33;;;3.23;;
16181;SDS011;8197;51.664;7.114;2023-12-22T06:36:00;24.00;;;2.57;;
16181;SDS011;8197;51.664;7.114;2023-12-22T06:41:05;28.60;;;3.40;;
16181;SDS011;8197;51.664;7.114;2023-12-22T06:46:14;26.60;;;2.70;;
16181;SDS011;8197;51.664;7.114;2023-12-22T06:51:18;23.87;;;3.20;;
16181;SDS011;8197;51.664;7.114;2023-12-22T06:56:23;19.80;;;2.93;;
16181;SDS011;8197;51.664;7.114;2023-12-22T07:01:31;23.47;;;2.30;;
16181;SDS011;8197;51.664;7.114;2023-12-22T07:06:35;25.67;;;3.23;;
16181;SDS011;8197;51.664;7.114;2023-12-22T07:11:40;20.37;;;2.07;;
16181;SDS011;8197;51.664;7.114;2023-12-22T07:16:45;24.37;;;2.70;;
16181;SDS011;8197;51.664;7.114;2023-12-22T07:21:48;19.50;;;2.13;;
16181;SDS011;8197;51.664;7.114;2023-12-22T07:26:52;22.73;;;2.43;;
16181;SDS011;8197;51.664;7.114;2023-12-22T07:31:55;22.40;;;2.60;;
16181;SDS011;8197;51.664;7.114;2023-12-22T07:36:59;22.50;;;3.13;;
16181;SDS011;8197;51.664;7.114;2023-12-22T07:42:09;18.10;;;2.20;;
16181;SDS011;8197;51.664;7.114;2023-12-22T07:47:12;25.07;;;2.57;;
16181;SDS011;8197;51.664;7.114;2023-12-22T07:52:15;22.23;;;2.40;;
16181;SDS011;8197;51.664;7.114;2023-12-22T07:57:20;23.57;;;2.50;;
16181;SDS011;8197;51.664;7.114;2023-12-22T08:02:23;26.40;;;3.43;;
16181;SDS011;8197;51.664;7.114;2023-12-22T08:07:26;23.13;;;3.07;;
16181;SDS011;8197;51.664;7.114;2023-12-22T08:12:30;31.83;;;3.23;;
16181;SDS011;8197;51.664;7.114;2023-12-22T08:17:33;21.77;;;2.70;;
16181;SDS011;8197;51.664;7.114;2023-12-22T08:22:36;23.83;;;2.73;;
16181;SDS011;8197;51.664;7.114;2023-12-22T08:27:47;27.87;;;3.33;;
16181;SDS011;8197;51.664;7.114;2023-12-22T08:32:50;23.27;;;3.23;;
16181;SDS011;8197;51.664;7.114;2023-12-22T08:37:55;24.83;;;2.53;;
16181;SDS011;8197;51.664;7.114;2023-12-22T08:43:00;29.20;;;3.03;;
16181;SDS011;8197;51.664;7.114;2023-12-22T08:48:04;27.27;;;3.60;;
16181;SDS011;8197;51.664;7.114;2023-12-22T08:53:09;44.90;;;4.70;;
16181;SDS011;8197;51.664;7.114;2023-12-22T08:58:14;64.77;;;4.80;;
16181;SDS011;8197;51.664;7.114;2023-12-22T09:03:16;33.97;;;4.40;;
16181;SDS011;8197;51.664;7.114;2023-12-22T09:08:19;38.53;;;3.07;;
16181;SDS011;8197;51.664;7.114;2023-12-22T09:13:24;38.33;;;4.13;;
16181;SDS011;8197;51.664;7.114;2023-12-22T09:18:26;36.53;;;6.50;;
16181;SDS011;8197;51.664;7.114;2023-12-22T09:23:29;32.33;;;4.30;;
16181;SDS011;8197;51.664;7.114;2023-12-22T09:28:34;36.50;;;4.60;;
16181;SDS011;8197;51.664;7.114;2023-12-22T09:33:37;38.40;;;5.63;;
16181;SDS011;8197;51.664;7.114;2023-12-22T09:38:41;28.20;;;3.60;;
16181;SDS011;8197;51.664;7.114;2023-12-22T09:43:46;33.93;;;5.90;;
16181;SDS011;8197;51.664;7.114;2023-12-22T09:48:52;25.97;;;3.73;;
16181;SDS011;8197;51.664;7.114;2023-12-22T09:53:55;38.37;;;3.53;;
16181;SDS011;8197;51.664;7.114;2023-12-22T09:59:03;23.27;;;3.20;;
16181;SDS011;8197;51.664;7.114;2023-12-22T10:04:07;30.30;;;3.50;;
16181;SDS011;8197;51.664;7.114;2023-12-22T10:09:10;23.37;;;2.90;;
16181;SDS011;8197;51.664;7.114;2023-12-22T10:14:17;25.67;;;2.77;;
16181;SDS011;8197;51.664;7.114;2023-12-22T10:19:23;29.30;;;2.93;;
16181;SDS011;8197;51.664;7.114;2023-12-22T10:24:38;19.33;;;2.73;;
16181;SDS011;8197;51.664;7.114;2023-12-22T10:29:46;29.67;;;3.17;;
16181;SDS011;8197;51.664;7.114;2023-12-22T10:34:50;29.43;;;3.93;;
16181;SDS011;8197;51.664;7.114;2023-12-22T10:39:54;23.20;;;3.10;;
16181;SDS011;8197;51.664;7.114;2023-12-22T10:44:59;31.20;;;3.50;;
16181;SDS011;8197;51.664;7.114;2023-12-22T10:50:02;22.87;;;2.73;;
16181;SDS011;8197;51.664;7.114;2023-12-22T10:55:06;23.10;;;4.27;;
16181;SDS011;8197;51.664;7.114;2023-12-22T11:00:12;27.73;;;4.37;;
16181;SDS011;8197;51.664;7.114;2023-12-22T11:05:18;28.53;;;3.87;;
16181;SDS011;8197;51.664;7.114;2023-12-22T11:10:27;26.97;;;3.00;;
16181;SDS011;8197;51.664;7.114;2023-12-22T11:15:34;29.80;;;3.50;;
16181;SDS011;8197;51.664;7.114;2023-12-22T11:20:38;20.50;;;2.50;;
16181;SDS011;8197;51.664;7.114;2023-12-22T11:25:44;21.53;;;2.70;;
16181;SDS011;8197;51.664;7.114;2023-12-22T11:30:52;18.23;;;1.67;;
16181;SDS011;8197;51.664;7.114;2023-12-22T11:35:59;16.23;;;1.33;;
16181;SDS011;8197;51.664;7.114;2023-12-22T11:41:03;20.63;;;1.67;;
16181;SDS011;8197;51.664;7.114;2023-12-22T11:46:08;13.67;;;1.10;;
16181;SDS011;8197;51.664;7.114;2023-12-22T11:51:12;19.07;;;1.73;;
16181;SDS011;8197;51.664;7.114;2023-12-22T11:56:16;14.87;;;1.20;;
16181;SDS011;8197;51.664;7.114;2023-12-22T12:01:23;18.80;;;1.60;;
16181;SDS011;8197;51.664;7.114;2023-12-22T12:06:30;15.13;;;1.20;;
16181;SDS011;8197;51.664;7.114;2023-12-22T12:17:15;15.50;;;1.50;;
16181;SDS011;8197;51.664;7.114;2023-12-22T12:22:21;16.80;;;1.70;;
16181;SDS011;8197;51.664;7.114;2023-12-22T12:27:26;17.17;;;1.53;;
16181;SDS011;8197;51.664;7.114;2023-12-22T12:32:30;14.43;;;1.20;;
16181;SDS011;8197;51.664;7.114;2023-12-22T12:37:35;15.60;;;1.40;;
16181;SDS011;8197;51.664;7.114;2023-12-22T12:42:39;13.87;;;1.10;;
16181;SDS011;8197;51.664;7.114;2023-12-22T12:47:43;15.47;;;1.50;;
16181;SDS011;8197;51.664;7.114;2023-12-22T12:52:46;16.70;;;1.50;;
16181;SDS011;8197;51.664;7.114;2023-12-22T12:57:51;13.60;;;1.20;;
16181;SDS011;8197;51.664;7.114;2023-12-22T13:02:56;16.77;;;1.33;;
16181;SDS011;8197;51.664;7.114;2023-12-22T13:08:07;18.13;;;1.30;;
16181;SDS011;8197;51.664;7.114;2023-12-22T13:13:11;14.90;;;1.37;;
16181;SDS011;8197;51.664;7.114;2023-12-22T13:18:16;17.90;;;1.63;;
16181;SDS011;8197;51.664;7.114;2023-12-22T13:23:19;16.33;;;1.60;;
16181;SDS011;8197;51.664;7.114;2023-12-22T13:28:25;13.90;;;0.80;;
16181;SDS011;8197;51.664;7.114;2023-12-22T13:33:33;15.57;;;1.30;;
16181;SDS011;8197;51.664;7.114;2023-12-22T13:38:36;21.40;;;1.53;;
16181;SDS011;8197;51.664;7.114;2023-12-22T13:43:39;15.67;;;1.33;;
16181;SDS011;8197;51.664;7.114;2023-12-22T13:48:44;16.20;;;1.40;;
16181;SDS011;8197;51.664;7.114;2023-12-22T13:53:47;15.57;;;1.53;;
16181;SDS011;8197;51.664;7.114;2023-12-22T13:58:50;13.50;;;1.30;;
16181;SDS011;8197;51.664;7.114;2023-12-22T14:03:55;16.70;;;1.40;;
16181;SDS011;8197;51.664;7.114;2023-12-22T14:08:58;14.27;;;1.30;;
16181;SDS011;8197;51.664;7.114;2023-12-22T14:14:01;14.27;;;1.43;;
16181;SDS011;8197;51.664;7.114;2023-12-22T14:19:06;15.43;;;1.20;;
16181;SDS011;8197;51.664;7.114;2023-12-22T14:24:10;19.50;;;2.20;;
16181;SDS011;8197;51.664;7.114;2023-12-22T14:29:13;17.10;;;1.70;;
16181;SDS011;8197;51.664;7.114;2023-12-22T14:34:17;15.33;;;1.47;;
16181;SDS011;8197;51.664;7.114;2023-12-22T14:39:20;14.60;;;1.40;;
16181;SDS011;8197;51.664;7.114;2023-12-22T14:44:23;21.33;;;2.20;;
16181;SDS011;8197;51.664;7.114;2023-12-22T14:55:49;19.23;;;1.70;;
16181;SDS011;8197;51.664;7.114;2023-12-22T15:00:54;16.37;;;1.50;;
16181;SDS011;8197;51.664;7.114;2023-12-22T15:05:57;19.00;;;1.40;;
16181;SDS011;8197;51.664;7.114;2023-12-22T15:11:02;16.20;;;1.40;;
16181;SDS011;8197;51.664;7.114;2023-12-22T15:16:05;17.00;;;1.47;;
16181;SDS011;8197;51.664;7.114;2023-12-22T15:21:08;21.20;;;1.60;;
16181;SDS011;8197;51.664;7.114;2023-12-22T15:26:20;18.83;;;1.30;;
16181;SDS011;8197;51.664;7.114;2023-12-22T15:31:24;16.57;;;1.60;;
16181;SDS011;8197;51.664;7.114;2023-12-22T15:36:27;16.37;;;1.50;;
16181;SDS011;8197;51.664;7.114;2023-12-22T15:41:32;15.97;;;1.60;;
16181;SDS011;8197;51.664;7.114;2023-12-22T15:46:35;17.90;;;1.43;;
16181;SDS011;8197;51.664;7.114;2023-12-22T15:51:38;19.80;;;1.97;;
16181;SDS011;8197;51.664;7.114;2023-12-22T15:56:43;18.27;;;1.83;;
16181;SDS011;8197;51.664;7.114;2023-12-22T16:01:46;15.67;;;1.63;;
16181;SDS011;8197;51.664;7.114;2023-12-22T16:06:49;18.07;;;2.10;;
16181;SDS011;8197;51.664;7.114;2023-12-22T16:11:54;21.97;;;2.00;;
16181;SDS011;8197;51.664;7.114;2023-12-22T16:16:59;17.30;;;1.93;;
16181;SDS011;8197;51.664;7.114;2023-12-22T16:22:02;20.07;;;2.20;;
16181;SDS011;8197;51.664;7.114;2023-12-22T16:27:07;22.40;;;2.80;;
16181;SDS011;8197;51.664;7.114;2023-12-22T16:32:11;25.37;;;3.73;;
16181;SDS011;8197;51.664;7.114;2023-12-22T16:37:16;23.00;;;3.80;;
16181;SDS011;8197;51.664;7.114;2023-12-22T16:42:21;23.23;;;2.40;;
16181;SDS011;8197;51.664;7.114;2023-12-22T16:47:25;20.37;;;2.10;;
16181;SDS011;8197;51.664;7.114;2023-12-22T16:52:31;20.63;;;1.97;;
16181;SDS011;8197;51.664;7.114;2023-12-22T16:57:36;24.23;;;2.63;;
16181;SDS011;8197;51.664;7.114;2023-12-22T17:02:44;27.73;;;3.50;;
16181;SDS011;8197;51.664;7.114;2023-12-22T17:07:47;20.87;;;1.83;;
16181;SDS011;8197;51.664;7.114;2023-12-22T17:12:52;22.93;;;2.87;;
16181;SDS011;8197;51.664;7.114;2023-12-22T17:17:55;17.23;;;1.97;;
16181;SDS011;8197;51.664;7.114;2023-12-22T17:22:58;14.90;;;1.13;;
16181;SDS011;8197;51.664;7.114;2023-12-22T17:28:03;15.53;;;1.23;;
16181;SDS011;8197;51.664;7.114;2023-12-22T17:33:06;14.80;;;0.93;;
16181;SDS011;8197;51.664;7.114;2023-12-22T17:38:09;14.70;;;1.17;;
16181;SDS011;8197;51.664;7.114;2023-12-22T17:43:13;18.97;;;1.13;;
16181;SDS011;8197;51.664;7.114;2023-12-22T17:48:17;15.50;;;1.20;;
16181;SDS011;8197;51.664;7.114;2023-12-22T17:53:20;15.43;;;1.20;;
16181;SDS011;8197;51.664;7.114;2023-12-22T17:58:27;13.77;;;0.80;;
16181;SDS011;8197;51.664;7.114;2023-12-22T18:03:30;14.87;;;1.10;;
16181;SDS011;8197;51.664;7.114;2023-12-22T18:08:33;13.17;;;1.00;;
16181;SDS011;8197;51.664;7.114;2023-12-22T18:13:37;15.73;;;1.27;;
16181;SDS011;8197;51.664;7.114;2023-12-22T18:18:40;15.77;;;1.37;;
16181;SDS011;8197;51.664;7.114;2023-12-22T18:23:43;13.93;;;1.17;;
16181;SDS011;8197;51.664;7.114;2023-12-22T18:28:48;20.10;;;1.50;;
16181;SDS011;8197;51.664;7.114;2023-12-22T18:33:51;14.77;;;1.20;;
16181;SDS011;8197;51.664;7.114;2023-12-22T18:38:54;15.17;;;1.20;;
16181;SDS011;8197;51.664;7.114;2023-12-22T18:43:59;14.20;;;1.00;;
16181;SDS011;8197;51.664;7.114;2023-12-22T18:49:01;17.30;;;1.60;;
16181;SDS011;8197;51.664;7.114;2023-12-22T18:54:05;16.53;;;1.27;;
16181;SDS011;8197;51.664;7.114;2023-12-22T18:59:11;17.97;;;2.73;;
16181;SDS011;8197;51.664;7.114;2023-12-22T19:04:14;14.80;;;1.20;;
16181;SDS011;8197;51.664;7.114;2023-12-22T19:09:18;16.03;;;1.13;;
16181;SDS011;8197;51.664;7.114;2023-12-22T19:14:23;17.93;;;2.33;;
16181;SDS011;8197;51.664;7.114;2023-12-22T19:19:26;17.33;;;1.50;;
16181;SDS011;8197;51.664;7.114;2023-12-22T19:24:29;16.33;;;1.40;;
16181;SDS011;8197;51.664;7.114;2023-12-22T19:29:34;19.03;;;1.60;;
16181;SDS011;8197;51.664;7.114;2023-12-22T19:34:37;15.57;;;1.43;;
16181;SDS011;8197;51.664;7.114;2023-12-22T19:39:40;17.53;;;1.50;;
16181;SDS011;8197;51.664;7.114;2023-12-22T19:44:44;15.73;;;1.70;;
16181;SDS011;8197;51.664;7.114;2023-12-22T19:49:50;15.80;;;1.70;;
16181;SDS011;8197;51.664;7.114;2023-12-22T19:54:53;18.20;;;1.70;;
16181;SDS011;8197;51.664;7.114;2023-12-22T19:59:57;16.40;;;2.50;;
16181;SDS011;8197;51.664;7.114;2023-12-22T20:05:00;15.63;;;1.53;;
16181;SDS011;8197;51.664;7.114;2023-12-22T20:10:04;18.40;;;1.43;;
16181;SDS011;8197;51.664;7.114;2023-12-22T20:15:09;24.20;;;1.43;;
16181;SDS011;8197;51.664;7.114;2023-12-22T20:20:12;20.03;;;2.00;;
16181;SDS011;8197;51.664;7.114;2023-12-22T20:25:16;18.50;;;1.90;;
16181;SDS011;8197;51.664;7.114;2023-12-22T20:30:20;16.80;;;2.30;;
16181;SDS011;8197;51.664;7.114;2023-12-22T20:35:23;18.70;;;2.10;;
16181;SDS011;8197;51.664;7.114;2023-12-22T20:40:26;18.17;;;1.10;;
16181;SDS011;8197;51.664;7.114;2023-12-22T20:45:31;18.10;;;2.07;;
16181;SDS011;8197;51.664;7.114;2023-12-22T20:50:33;21.23;;;1.57;;
16181;SDS011;8197;51.664;7.114;2023-12-22T20:55:37;19.70;;;1.60;;
16181;SDS011;8197;51.664;7.114;2023-12-22T21:00:41;17.87;;;1.90;;
16181;SDS011;8197;51.664;7.114;2023-12-22T21:05:44;19.97;;;2.00;;
16181;SDS011;8197;51.664;7.114;2023-12-22T21:10:49;18.27;;;1.87;;
16181;SDS011;8197;51.664;7.114;2023-12-22T21:15:54;15.60;;;1.33;;
16181;SDS011;8197;51.664;7.114;2023-12-22T21:20:56;18.57;;;1.47;;
16181;SDS011;8197;51.664;7.114;2023-12-22T21:26:00;15.27;;;1.40;;
16181;SDS011;8197;51.664;7.114;2023-12-22T21:31:06;17.33;;;1.53;;
16181;SDS011;8197;51.664;7.114;2023-12-22T21:36:17;19.00;;;1.70;;
16181;SDS011;8197;51.664;7.114;2023-12-22T21:41:21;18.07;;;1.47;;
16181;SDS011;8197;51.664;7.114;2023-12-22T21:46:26;15.10;;;1.47;;
16181;SDS011;8197;51.664;7.114;2023-12-22T21:51:28;20.00;;;1.83;;
16181;SDS011;8197;51.664;7.114;2023-12-22T21:56:31;22.80;;;1.67;;
16181;SDS011;8197;51.664;7.114;2023-12-22T22:01:43;19.87;;;1.73;;
16181;SDS011;8197;51.664;7.114;2023-12-22T22:06:47;20.10;;;1.67;;
16181;SDS011;8197;51.664;7.114;2023-12-22T22:11:50;18.53;;;1.67;;
16181;SDS011;8197;51.664;7.114;2023-12-22T22:16:55;15.70;;;1.73;;
16181;SDS011;8197;51.664;7.114;2023-12-22T22:21:58;15.83;;;1.30;;
16181;SDS011;8197;51.664;7.114;2023-12-22T22:27:01;16.30;;;1.40;;
16181;SDS011;8197;51.664;7.114;2023-12-22T22:32:07;19.60;;;1.97;;
16181;SDS011;8197;51.664;7.114;2023-12-22T22:37:10;18.50;;;1.57;;
16181;SDS011;8197;51.664;7.114;2023-12-22T22:42:13;23.83;;;2.40;;
16181;SDS011;8197;51.664;7.114;2023-12-22T22:47:17;18.77;;;1.60;;
16181;SDS011;8197;51.664;7.114;2023-12-22T22:52:20;21.67;;;1.70;;
16181;SDS011;8197;51.664;7.114;2023-12-22T22:57:23;23.20;;;2.20;;
16181;SDS011;8197;51.664;7.114;2023-12-22T23:02:28;22.63;;;1.73;;
16181;SDS011;8197;51.664;7.114;2023-12-22T23:07:31;26.80;;;2.43;;
16181;SDS011;8197;51.664;7.114;2023-12-22T23:12:34;18.47;;;1.83;;
16181;SDS011;8197;51.664;7.114;2023-12-22T23:17:38;22.03;;;2.00;;
16181;SDS011;8197;51.664;7.114;2023-12-22T23:22:41;23.57;;;2.20;;
16181;SDS011;8197;51.664;7.114;2023-12-22T23:27:45;24.77;;;2.00;;
16181;SDS011;8197;51.664;7.114;2023-12-22T23:32:50;17.33;;;1.67;;
16181;SDS011;8197;51.664;7.114;2023-12-22T23:37:53;22.13;;;2.33;;
16181;SDS011;8197;51.664;7.114;2023-12-22T23:42:56;16.97;;;1.63;;
16181;SDS011;8197;51.664;7.114;2023-12-22T23:48:01;20.27;;;2.43;;
16181;SDS011;8197;51.664;7.114;2023-12-22T23:53:04;19.53;;;2.07;;
16181;SDS011;8197;51.664;7.114;2023-12-22T23:58:06;20.00;;;1.80;;
